createdAt,value
2022-12-28T00:00:13.758Z,96410.44
2022-12-28T00:02:42.200Z,96397.94
2022-12-28T00:05:11.542Z,96391.81
2022-12-28T00:07:39.909Z,96389.22
2022-12-28T00:10:08.148Z,96385.69
2022-12-28T00:12:35.882Z,96375.19
2022-12-28T00:15:03.526Z,96371.78
2022-12-28T00:17:31.831Z,96370.81
2022-12-28T00:19:59.529Z,96374.06
2022-12-28T00:22:29.503Z,96357.69
2022-12-28T00:24:57.608Z,96364.81
2022-12-28T00:27:25.277Z,96364.81
2022-12-28T00:29:52.942Z,96353.31
2022-12-28T00:32:21.510Z,96349.50
2022-12-28T00:34:49.538Z,96349.28
2022-12-28T00:37:17.199Z,96347.63
2022-12-28T00:39:47.762Z,96353.19
2022-12-28T00:42:16.185Z,96359.25
2022-12-28T00:44:44.983Z,96368.00
2022-12-28T00:47:12.687Z,96376.97
2022-12-28T00:49:40.499Z,96378.88
2022-12-28T00:52:08.203Z,96378.31
2022-12-28T00:54:35.900Z,96377.59
2022-12-28T00:57:05.171Z,96376.06
2022-12-28T00:59:34.637Z,96375.84
2022-12-28T01:02:02.452Z,96369.00
2022-12-28T01:04:30.528Z,96372.97
2022-12-28T01:06:58.196Z,96368.50
2022-12-28T01:09:26.401Z,96365.44
2022-12-28T01:11:55.645Z,96369.78
2022-12-28T01:14:25.575Z,96370.19
2022-12-28T01:16:53.464Z,96365.00
2022-12-28T01:19:23.773Z,96364.28
2022-12-28T01:21:52.921Z,96362.41
2022-12-28T01:24:20.671Z,96356.78
2022-12-28T01:26:51.122Z,96352.06
2022-12-28T01:29:19.260Z,96351.19
2022-12-28T01:31:49.126Z,96351.22
2022-12-28T01:34:17.230Z,96342.47
2022-12-28T01:36:47.559Z,96344.13
2022-12-28T01:39:15.573Z,96345.47
2022-12-28T01:41:44.068Z,96334.56
2022-12-28T01:44:41.103Z,96330.69
2022-12-28T01:47:14.526Z,96325.06
2022-12-28T01:49:47.454Z,96325.78
2022-12-28T01:52:21.625Z,96332.19
2022-12-28T01:54:54.132Z,96327.94
2022-12-28T01:57:28.265Z,96320.09
2022-12-28T02:00:01.583Z,96315.59
2022-12-28T02:02:44.137Z,96314.41
2022-12-28T02:05:14.284Z,96313.88
2022-12-28T02:07:47.867Z,96312.38
2022-12-28T02:10:41.519Z,96312.84
2022-12-28T02:13:06.027Z,96308.19
2022-12-28T02:15:34.126Z,96316.78
2022-12-28T02:18:03.807Z,96321.50
2022-12-28T02:20:40.335Z,96312.53
2022-12-28T02:23:35.334Z,96316.53
2022-12-28T02:26:37.217Z,96305.00
2022-12-28T02:29:27.586Z,96297.91
2022-12-28T02:32:02.091Z,96300.72
2022-12-28T02:34:36.481Z,96298.94
2022-12-28T02:37:10.745Z,96291.25
2022-12-28T02:39:42.827Z,96288.63
2022-12-28T02:42:11.836Z,96279.53
2022-12-28T02:44:58.487Z,96280.53
2022-12-28T02:47:43.929Z,96283.53
2022-12-28T02:50:15.712Z,96266.16
2022-12-28T02:53:02.695Z,96271.13
2022-12-28T02:56:15.992Z,96263.13
2022-12-28T02:59:15.646Z,96254.25
2022-12-28T03:02:09.740Z,96242.78
2022-12-28T03:04:51.462Z,96234.06
2022-12-28T03:07:44.059Z,96225.31
2022-12-28T03:10:15.663Z,96222.94
2022-12-28T03:12:49.423Z,96227.00
2022-12-28T03:15:29.633Z,96212.81
2022-12-28T03:18:21.518Z,96213.38
2022-12-28T03:21:10.287Z,96211.53
2022-12-28T03:23:58.719Z,96203.81
2022-12-28T03:26:49.533Z,96205.72
2022-12-28T03:29:39.216Z,96202.91
2022-12-28T03:32:08.643Z,96203.38
2022-12-28T03:34:39.232Z,96192.50
2022-12-28T03:37:12.919Z,96187.75
2022-12-28T03:39:45.401Z,96185.88
2022-12-28T03:42:35.018Z,96185.03
2022-12-28T03:45:10.536Z,96174.06
2022-12-28T03:47:43.585Z,96180.78
2022-12-28T03:50:12.958Z,96171.91
2022-12-28T03:52:41.384Z,96172.88
2022-12-28T03:55:10.076Z,96174.88
2022-12-28T03:57:39.211Z,96171.91
2022-12-28T04:00:12.593Z,96177.72
2022-12-28T04:02:51.181Z,96174.06
2022-12-28T04:05:22.001Z,96163.91
2022-12-28T04:07:50.398Z,96162.25
2022-12-28T04:10:18.242Z,96165.34
2022-12-28T04:12:46.075Z,96172.66
2022-12-28T04:15:26.584Z,96169.47
2022-12-28T04:17:54.930Z,96165.09
2022-12-28T04:20:25.733Z,96166.75
2022-12-28T04:22:53.960Z,96159.16
2022-12-28T04:25:22.246Z,96160.59
2022-12-28T04:27:50.744Z,96160.59
2022-12-28T04:30:38.451Z,96167.44
2022-12-28T04:33:06.517Z,96159.59
2022-12-28T04:35:35.612Z,96171.53
2022-12-28T04:38:03.511Z,96159.66
2022-12-28T04:40:31.196Z,96158.81
2022-12-28T04:42:58.928Z,96142.16
2022-12-28T04:45:26.635Z,96131.38
2022-12-28T04:47:58.169Z,96133.53
2022-12-28T04:50:26.247Z,96124.78
2022-12-28T04:52:55.637Z,96123.75
2022-12-28T04:55:32.133Z,96119.88
2022-12-28T04:58:01.657Z,96127.75
2022-12-28T05:00:29.706Z,96130.41
2022-12-28T05:03:00.323Z,96126.75
2022-12-28T05:05:28.848Z,96129.56
2022-12-28T05:08:01.468Z,96126.31
2022-12-28T05:10:29.445Z,96123.03
2022-12-28T05:12:58.139Z,96132.09
2022-12-28T05:15:26.071Z,96121.81
2022-12-28T05:17:55.984Z,96123.78
2022-12-28T05:20:23.641Z,96123.38
2022-12-28T05:22:51.871Z,96133.56
2022-12-28T05:25:21.153Z,96126.47
2022-12-28T05:27:49.190Z,96127.72
2022-12-28T05:30:16.960Z,96127.31
2022-12-28T05:32:44.877Z,96117.44
2022-12-28T05:35:12.751Z,96117.81
2022-12-28T05:37:40.798Z,96125.81
2022-12-28T05:40:09.706Z,96117.97
2022-12-28T05:42:38.768Z,96114.69
2022-12-28T05:45:07.435Z,96108.34
2022-12-28T05:47:35.123Z,96097.34
2022-12-28T05:50:02.969Z,96099.53
2022-12-28T05:52:32.602Z,96096.66
2022-12-28T05:55:00.251Z,96108.91
2022-12-28T05:57:28.294Z,96105.06
2022-12-28T05:59:57.776Z,96102.88
2022-12-28T06:02:27.654Z,96104.63
2022-12-28T06:04:55.795Z,96113.31
2022-12-28T06:07:23.856Z,96105.72
2022-12-28T06:09:51.570Z,96107.94
2022-12-28T06:12:19.253Z,96099.81
2022-12-28T06:14:46.978Z,96092.66
2022-12-28T06:17:15.987Z,96092.63
2022-12-28T06:19:43.987Z,96090.16
2022-12-28T06:22:11.643Z,96088.69
2022-12-28T06:24:39.303Z,96089.88
2022-12-28T06:27:06.934Z,96090.72
2022-12-28T06:29:34.600Z,96100.91
2022-12-28T06:32:02.302Z,96098.44
2022-12-28T06:34:32.106Z,96099.25
2022-12-28T06:37:00.413Z,96095.66
2022-12-28T06:39:29.181Z,96087.81
2022-12-28T06:41:56.829Z,96087.66
2022-12-28T06:44:24.821Z,96085.31
2022-12-28T06:46:52.489Z,96092.31
2022-12-28T06:49:20.889Z,96094.53
2022-12-28T06:51:49.952Z,96099.88
2022-12-28T06:54:18.178Z,96094.25
2022-12-28T06:56:45.801Z,96096.16
2022-12-28T06:59:13.763Z,96094.25
2022-12-28T07:01:44.652Z,96090.94
2022-12-28T07:04:13.266Z,96093.47
2022-12-28T07:06:42.411Z,96098.69
2022-12-28T07:09:14.461Z,96098.69
2022-12-28T07:11:42.419Z,96096.06
2022-12-28T07:14:10.252Z,96095.91
2022-12-28T07:19:05.776Z,96082.69
2022-12-28T07:21:35.105Z,96084.06
2022-12-28T07:24:03.891Z,96083.78
2022-12-28T07:26:36.023Z,96079.25
2022-12-28T07:29:06.074Z,96087.63
2022-12-28T07:31:41.662Z,96086.94
2022-12-28T07:34:13.189Z,96081.28
2022-12-28T07:36:40.850Z,96072.72
2022-12-28T07:39:10.711Z,96076.84
2022-12-28T07:41:39.754Z,96076.25
2022-12-28T07:44:08.160Z,96080.41
2022-12-28T07:46:37.302Z,96084.25
2022-12-28T07:49:06.329Z,96085.19
2022-12-28T07:51:36.213Z,96080.06
2022-12-28T07:54:05.162Z,96085.00
2022-12-28T07:59:06.204Z,96096.59
2022-12-28T08:01:36.062Z,96096.72
2022-12-28T08:04:06.566Z,96090.94
2022-12-28T08:06:36.785Z,96089.16
2022-12-28T08:09:06.296Z,96086.53
2022-12-28T08:11:36.818Z,96086.63
2022-12-28T08:14:06.751Z,96091.28
2022-12-28T08:16:37.009Z,96095.16
2022-12-28T08:19:04.887Z,96083.56
2022-12-28T08:21:36.620Z,96084.75
2022-12-28T08:24:05.471Z,96083.91
2022-12-28T08:26:35.297Z,96078.94
2022-12-28T08:29:05.176Z,96080.59
2022-12-28T08:31:37.479Z,96080.03
2022-12-28T08:34:07.897Z,96073.22
2022-12-28T08:36:36.238Z,96067.84
2022-12-28T08:39:04.707Z,96073.59
2022-12-28T08:41:33.075Z,96067.41
2022-12-28T08:44:00.952Z,96075.28
2022-12-28T08:46:30.607Z,96070.81
2022-12-28T08:49:00.709Z,96070.78
2022-12-28T08:51:31.970Z,96073.47
2022-12-28T08:54:00.704Z,96069.81
2022-12-28T08:56:30.668Z,96063.34
2022-12-28T08:58:59.498Z,96057.03
2022-12-28T09:01:30.238Z,96047.34
2022-12-28T09:04:01.675Z,96040.38
2022-12-28T09:06:32.479Z,96040.50
2022-12-28T09:09:08.603Z,96036.59
2022-12-28T09:11:38.454Z,96037.63
2022-12-28T09:14:08.209Z,96041.34
2022-12-28T09:16:38.636Z,96038.38
2022-12-28T09:19:09.947Z,96029.34
2022-12-28T09:21:39.546Z,96029.19
2022-12-28T09:24:08.138Z,96031.28
2022-12-28T09:26:38.051Z,96033.63
2022-12-28T09:29:07.301Z,96036.25
2022-12-28T09:31:38.609Z,96030.81
2022-12-28T09:36:59.934Z,96019.81
2022-12-28T09:39:27.745Z,96032.09
2022-12-28T09:41:58.496Z,96027.53
2022-12-28T09:44:43.359Z,96021.63
2022-12-28T09:47:20.710Z,96019.78
2022-12-28T09:50:01.071Z,96017.81
2022-12-28T09:52:32.076Z,96012.56
2022-12-28T09:55:07.972Z,96007.31
2022-12-28T09:57:39.532Z,96000.53
2022-12-28T10:00:15.299Z,96001.94
2022-12-28T10:02:49.388Z,96002.97
2022-12-28T10:05:20.149Z,96003.69
2022-12-28T10:07:48.300Z,96000.91
2022-12-28T10:10:18.351Z,95998.66
2022-12-28T10:12:47.415Z,96001.94
2022-12-28T10:15:16.847Z,95983.19
2022-12-28T10:17:46.445Z,95986.81
2022-12-28T10:20:20.652Z,95983.25
2022-12-28T10:22:53.575Z,95981.25
2022-12-28T10:25:23.839Z,95982.94
2022-12-28T10:27:52.263Z,95972.59
2022-12-28T10:30:26.690Z,95969.81
2022-12-28T10:33:02.699Z,95964.84
2022-12-28T10:35:38.297Z,95969.16
2022-12-28T10:38:19.912Z,95965.91
2022-12-28T10:40:57.674Z,95948.97
2022-12-28T10:43:30.190Z,95944.25
2022-12-28T10:45:59.937Z,95947.19
2022-12-28T10:48:32.591Z,95940.22
2022-12-28T10:51:12.395Z,95926.53
2022-12-28T10:53:44.116Z,95925.53
2022-12-28T10:56:24.153Z,95921.59
2022-12-28T10:58:53.390Z,95919.34
2022-12-28T11:01:26.628Z,95919.88
2022-12-28T11:04:08.483Z,95909.00
2022-12-28T11:06:51.472Z,95910.25
2022-12-28T11:09:23.552Z,95911.19
2022-12-28T11:11:54.032Z,95898.53
2022-12-28T11:14:33.076Z,95900.44
2022-12-28T11:17:16.245Z,95892.13
2022-12-28T11:19:44.193Z,95894.78
2022-12-28T11:22:16.358Z,95881.13
2022-12-28T11:24:44.604Z,95886.91
2022-12-28T11:27:17.490Z,95879.75
2022-12-28T11:29:48.628Z,95883.41
2022-12-28T11:32:22.551Z,95885.78
2022-12-28T11:34:51.016Z,95871.34
2022-12-28T11:37:20.092Z,95874.88
2022-12-28T11:39:49.631Z,95880.19
2022-12-28T11:42:59.329Z,95871.94
2022-12-28T11:45:53.342Z,95866.38
2022-12-28T11:48:49.353Z,95857.44
2022-12-28T11:51:19.057Z,95854.53
2022-12-28T11:53:53.632Z,95847.28
2022-12-28T11:56:22.063Z,95849.34
2022-12-28T11:59:05.564Z,95839.19
2022-12-28T12:01:56.529Z,95840.81
2022-12-28T12:04:40.962Z,95829.53
2022-12-28T12:07:31.564Z,95826.22
2022-12-28T12:10:35.700Z,95816.69
2022-12-28T12:13:36.746Z,95811.31
2022-12-28T12:16:17.121Z,95810.00
2022-12-28T12:18:47.896Z,95817.97
2022-12-28T12:21:29.495Z,95817.22
2022-12-28T12:24:04.768Z,95812.28
2022-12-28T12:26:37.914Z,95809.44
2022-12-28T12:29:08.936Z,95804.16
2022-12-28T12:31:43.710Z,95797.59
2022-12-28T12:34:19.783Z,95797.41
2022-12-28T12:37:19.309Z,95781.75
2022-12-28T12:40:18.746Z,95782.91
2022-12-28T12:43:03.971Z,95786.88
2022-12-28T12:45:40.488Z,95774.94
2022-12-28T12:48:31.176Z,95769.75
2022-12-28T12:51:11.087Z,95762.72
2022-12-28T12:53:52.487Z,95764.97
2022-12-28T12:56:33.716Z,95762.38
2022-12-28T12:59:22.648Z,95761.53
2022-12-28T13:01:56.934Z,95758.38
2022-12-28T13:04:29.815Z,95756.00
2022-12-28T13:07:00.940Z,95754.19
2022-12-28T13:09:31.381Z,95747.44
2022-12-28T13:12:01.390Z,95744.63
2022-12-28T13:14:29.631Z,95742.78
2022-12-28T13:17:00.161Z,95744.75
2022-12-28T13:19:31.032Z,95743.81
2022-12-28T13:21:59.532Z,95739.16
2022-12-28T13:24:29.613Z,95742.75
2022-12-28T13:26:58.942Z,95733.53
2022-12-28T13:29:29.040Z,95734.03
2022-12-28T13:31:56.671Z,95727.44
2022-12-28T13:34:26.980Z,95736.50
2022-12-28T13:36:59.148Z,95728.50
2022-12-28T13:39:28.536Z,95732.47
2022-12-28T13:41:59.256Z,95721.75
2022-12-28T13:44:35.855Z,95726.94
2022-12-28T13:47:09.808Z,95723.56
2022-12-28T13:49:43.155Z,95721.53
2022-12-28T13:52:18.033Z,95720.69
2022-12-28T13:54:50.211Z,95722.75
2022-12-28T13:57:45.806Z,95711.28
2022-12-28T14:00:08.939Z,95719.69
2022-12-28T14:02:40.269Z,95705.78
2022-12-28T14:05:16.094Z,95705.41
2022-12-28T14:07:45.379Z,95714.38
2022-12-28T14:10:14.642Z,95706.44
2022-12-28T14:12:42.650Z,95702.78
2022-12-28T14:15:12.061Z,95706.28
2022-12-28T14:17:41.061Z,95712.44
2022-12-28T14:20:11.045Z,95701.00
2022-12-28T14:22:40.805Z,95698.91
2022-12-28T14:25:11.838Z,95698.09
2022-12-28T14:27:42.555Z,95694.88
2022-12-28T14:30:24.492Z,95697.97
2022-12-28T14:32:53.024Z,95694.59
2022-12-28T14:35:24.445Z,95692.78
2022-12-28T14:37:55.074Z,95695.34
2022-12-28T14:40:29.440Z,95699.97
2022-12-28T14:42:58.092Z,95708.38
2022-12-28T14:48:33.666Z,95697.66
2022-12-28T14:51:04.770Z,95700.22
2022-12-28T14:53:33.310Z,95703.56
2022-12-28T14:56:07.447Z,95697.97
2022-12-28T14:58:41.889Z,95700.00
2022-12-28T15:01:10.490Z,95694.97
2022-12-28T15:03:52.916Z,95687.56
2022-12-28T15:06:21.711Z,95698.38
2022-12-28T15:08:50.876Z,95691.50
2022-12-28T15:11:21.267Z,95696.97
2022-12-28T15:13:49.816Z,95688.06
2022-12-28T15:16:19.334Z,95688.19
2022-12-28T15:18:47.469Z,95693.81
2022-12-28T15:21:18.677Z,95696.09
2022-12-28T15:23:49.552Z,95695.78
2022-12-28T15:26:17.999Z,95696.50
2022-12-28T15:28:47.418Z,95692.63
2022-12-28T15:31:18.377Z,95687.72
2022-12-28T15:33:46.930Z,95696.59
2022-12-28T15:36:18.059Z,95683.34
2022-12-28T15:38:46.370Z,95681.25
2022-12-28T15:41:32.645Z,95674.34
2022-12-28T15:44:01.718Z,95666.38
2022-12-28T15:46:30.527Z,95668.56
2022-12-28T15:48:58.280Z,95673.53
2022-12-28T15:51:26.214Z,95675.25
2022-12-28T15:53:53.852Z,95672.44
2022-12-28T15:56:24.012Z,95673.47
2022-12-28T15:58:54.509Z,95687.03
2022-12-28T16:01:25.779Z,95676.16
2022-12-28T16:03:54.618Z,95680.13
2022-12-28T16:06:24.153Z,95677.16
2022-12-28T16:08:54.194Z,95673.41
2022-12-28T16:11:22.925Z,95672.56
2022-12-28T16:13:52.772Z,95657.81
2022-12-28T16:16:22.351Z,95662.41
2022-12-28T16:18:51.584Z,95656.19
2022-12-28T16:21:19.656Z,95662.16
2022-12-28T16:23:47.476Z,95661.81
2022-12-28T16:26:15.844Z,95667.69
2022-12-28T16:28:43.585Z,95663.47
2022-12-28T16:31:22.459Z,95659.53
2022-12-28T16:33:54.961Z,95665.78
2022-12-28T16:36:23.200Z,95668.09
2022-12-28T16:38:51.203Z,95665.47
2022-12-28T16:41:20.076Z,95664.53
2022-12-28T16:43:48.771Z,95666.16
2022-12-28T16:46:17.554Z,95654.84
2022-12-28T16:48:45.583Z,95660.56
2022-12-28T16:51:15.187Z,95654.50
2022-12-28T16:53:42.841Z,95655.31
2022-12-28T16:56:11.384Z,95652.03
2022-12-28T16:58:39.037Z,95649.06
2022-12-28T17:01:09.162Z,95651.41
2022-12-28T17:03:38.842Z,95653.38
2022-12-28T17:06:07.216Z,95661.56
2022-12-28T17:08:37.753Z,95657.94
2022-12-28T17:11:09.187Z,95647.31
2022-12-28T17:13:37.738Z,95659.31
2022-12-28T17:16:06.184Z,95656.03
2022-12-28T17:18:34.317Z,95656.69
2022-12-28T17:21:06.675Z,95651.38
2022-12-28T17:23:36.471Z,95639.22
2022-12-28T17:26:04.132Z,95644.44
2022-12-28T17:28:32.143Z,95645.25
2022-12-28T17:31:11.929Z,95633.41
2022-12-28T17:33:40.447Z,95636.19
2022-12-28T17:36:09.184Z,95642.03
2022-12-28T17:38:38.425Z,95645.63
2022-12-28T17:41:11.156Z,95631.63
2022-12-28T17:43:39.503Z,95633.25
2022-12-28T17:46:07.824Z,95623.44
2022-12-28T17:48:36.042Z,95627.19
2022-12-28T17:51:10.812Z,95628.34
2022-12-28T17:53:41.185Z,95629.00
2022-12-28T17:56:11.137Z,95623.59
2022-12-28T17:58:39.799Z,95625.38
2022-12-28T18:01:08.207Z,95613.38
2022-12-28T18:03:36.916Z,95621.72
2022-12-28T18:06:05.277Z,95623.19
2022-12-28T18:08:33.679Z,95626.78
2022-12-28T18:11:03.063Z,95630.50
2022-12-28T18:13:31.386Z,95630.81
2022-12-28T18:15:59.438Z,95626.06
2022-12-28T18:18:27.488Z,95626.28
2022-12-28T18:20:59.181Z,95626.38
2022-12-28T18:23:28.262Z,95631.41
2022-12-28T18:26:03.338Z,95624.84
2022-12-28T18:28:31.341Z,95621.19
2022-12-28T18:31:02.000Z,95624.41
2022-12-28T18:33:30.855Z,95619.47
2022-12-28T18:35:58.638Z,95619.09
2022-12-28T18:38:26.730Z,95625.31
2022-12-28T18:40:56.748Z,95618.44
2022-12-28T18:43:26.473Z,95613.53
2022-12-28T18:45:54.729Z,95609.28
2022-12-28T18:48:23.478Z,95609.72
2022-12-28T18:50:55.449Z,95605.59
2022-12-28T18:53:23.704Z,95606.75
2022-12-28T18:55:57.833Z,95600.69
2022-12-28T18:58:28.516Z,95593.78
2022-12-28T19:01:02.749Z,95583.63
2022-12-28T19:03:30.793Z,95582.31
2022-12-28T19:06:02.817Z,95582.59
2022-12-28T19:08:32.779Z,95578.97
2022-12-28T19:11:00.812Z,95570.06
2022-12-28T19:13:29.962Z,95563.50
2022-12-28T19:15:57.657Z,95563.28
2022-12-28T19:18:25.341Z,95556.69
2022-12-28T19:20:56.780Z,95555.66
2022-12-28T19:23:24.617Z,95562.31
2022-12-28T19:25:54.558Z,95559.31
2022-12-28T19:28:22.291Z,95555.44
2022-12-28T19:30:51.451Z,95545.56
2022-12-28T19:33:19.311Z,95555.72
2022-12-28T19:35:50.214Z,95560.59
2022-12-28T19:38:17.855Z,95546.59
2022-12-28T19:40:45.964Z,95544.97
2022-12-28T19:43:14.361Z,95540.97
2022-12-28T19:45:42.207Z,95540.63
2022-12-28T19:48:11.243Z,95534.03
2022-12-28T19:50:39.211Z,95525.28
2022-12-28T19:53:06.957Z,95530.81
2022-12-28T19:55:35.083Z,95525.59
2022-12-28T19:58:02.931Z,95531.63
2022-12-28T20:00:30.582Z,95511.19
2022-12-28T20:02:58.342Z,95506.94
2022-12-28T20:05:29.370Z,95506.09
2022-12-28T20:07:57.244Z,95508.94
2022-12-28T20:10:25.306Z,95504.28
2022-12-28T20:12:52.954Z,95502.63
2022-12-28T20:15:21.002Z,95503.94
2022-12-28T20:17:48.972Z,95501.41
2022-12-28T20:20:18.196Z,95498.56
2022-12-28T20:22:49.240Z,95503.78
2022-12-28T20:25:17.007Z,95495.88
2022-12-28T20:27:44.673Z,95486.63
2022-12-28T20:30:13.730Z,95495.50
2022-12-28T20:32:44.902Z,95484.22
2022-12-28T20:35:13.835Z,95490.19
2022-12-28T20:37:41.496Z,95485.53
2022-12-28T20:40:12.292Z,95480.72
2022-12-28T20:42:57.415Z,95486.81
2022-12-28T20:45:25.073Z,95483.78
2022-12-28T20:47:54.524Z,95487.38
2022-12-28T20:50:22.531Z,95479.75
2022-12-28T20:52:53.702Z,95481.47
2022-12-28T20:55:22.865Z,95479.13
2022-12-28T20:57:50.868Z,95484.94
2022-12-28T21:00:19.056Z,95479.84
2022-12-28T21:02:46.851Z,95480.22
2022-12-28T21:05:15.261Z,95471.16
2022-12-28T21:07:43.036Z,95472.19
2022-12-28T21:10:11.115Z,95475.50
2022-12-28T21:12:40.703Z,95470.28
2022-12-28T21:15:09.629Z,95472.59
2022-12-28T21:17:37.342Z,95465.94
2022-12-28T21:20:05.635Z,95467.38
2022-12-28T21:22:33.298Z,95460.97
2022-12-28T21:25:01.627Z,95463.69
2022-12-28T21:27:29.422Z,95456.53
2022-12-28T21:29:58.807Z,95465.56
2022-12-28T21:32:26.460Z,95457.59
2022-12-28T21:34:54.440Z,95462.81
2022-12-28T21:37:37.153Z,95458.97
2022-12-28T21:40:07.889Z,95449.88
2022-12-28T21:42:36.467Z,95460.31
2022-12-28T21:45:06.512Z,95450.41
2022-12-28T21:47:35.657Z,95446.84
2022-12-28T21:50:04.919Z,95446.69
2022-12-28T21:52:33.796Z,95448.97
2022-12-28T21:55:22.549Z,95450.94
2022-12-28T21:57:50.815Z,95452.25
2022-12-28T22:00:39.056Z,95450.44
2022-12-28T22:03:25.069Z,95450.41
2022-12-28T22:06:05.019Z,95440.25
2022-12-28T22:08:50.978Z,95432.81
2022-12-28T22:11:37.024Z,95441.81
2022-12-28T22:14:05.828Z,95439.28
2022-12-28T22:16:36.305Z,95434.63
2022-12-28T22:19:04.911Z,95440.34
2022-12-28T22:21:33.184Z,95433.56
2022-12-28T22:24:00.810Z,95432.59
2022-12-28T22:26:28.796Z,95431.19
2022-12-28T22:28:56.880Z,95427.13
2022-12-28T22:31:24.801Z,95422.31
2022-12-28T22:33:55.659Z,95421.09
2022-12-28T22:36:23.418Z,95416.41
2022-12-28T22:38:51.102Z,95422.75
2022-12-28T22:41:19.287Z,95420.75
2022-12-28T22:43:50.597Z,95421.09
2022-12-28T22:46:19.376Z,95417.66
2022-12-28T22:48:47.272Z,95407.50
2022-12-28T22:51:18.109Z,95406.75
2022-12-28T22:53:45.996Z,95407.03
2022-12-28T22:56:20.044Z,95397.47
2022-12-28T22:58:48.418Z,95401.75
2022-12-28T23:01:18.363Z,95401.44
2022-12-28T23:03:47.554Z,95397.47
2022-12-28T23:06:20.018Z,95389.59
2022-12-28T23:08:48.220Z,95392.16
2022-12-28T23:11:35.935Z,95391.22
2022-12-28T23:14:19.492Z,95383.38
2022-12-28T23:16:47.677Z,95382.31
2022-12-28T23:19:34.172Z,95384.91
2022-12-28T23:22:23.057Z,95382.56
2022-12-28T23:25:08.768Z,95384.75
2022-12-28T23:27:39.445Z,95379.69
2022-12-28T23:30:09.663Z,95380.91
2022-12-28T23:32:37.499Z,95372.75
2022-12-28T23:35:05.749Z,95373.94
2022-12-28T23:37:35.787Z,95371.34
2022-12-28T23:40:04.091Z,95364.56
2022-12-28T23:42:31.758Z,95364.63
2022-12-28T23:44:59.419Z,95357.63
2022-12-28T23:47:27.466Z,95351.16
2022-12-28T23:49:55.162Z,95348.47
2022-12-28T23:52:25.968Z,95350.69
2022-12-28T23:54:55.300Z,95348.41
2022-12-28T23:57:24.048Z,95342.19
2022-12-28T23:59:51.692Z,95345.78
